sensor_id;sensor_type;location;lat;lon;timestamp;temperature;humidity
13610;DHT22;6876;50.788;4.940;2023-10-09T00:00:17;15.50;99.90
13610;DHT22;6876;50.788;4.940;2023-10-09T00:03:36;15.60;99.90
13610;DHT22;6876;50.788;4.940;2023-10-09T00:06:25;15.60;99.90
13610;DHT22;6876;50.788;4.940;2023-10-09T00:09:22;15.50;99.90
13610;DHT22;6876;50.788;4.940;2023-10-09T00:12:26;15.50;99.90
13610;DHT22;6876;50.788;4.940;2023-10-09T00:15:14;15.40;99.90
13610;DHT22;6876;50.788;4.940;2023-10-09T00:18:04;15.40;99.90
13610;DHT22;6876;50.788;4.940;2023-10-09T00:20:58;15.30;99.90
13610;DHT22;6876;50.788;4.940;2023-10-09T00:23:59;15.20;99.90
13610;DHT22;6876;50.788;4.940;2023-10-09T00:26:49;15.20;99.90
13610;DHT22;6876;50.788;4.940;2023-10-09T00:29:38;15.20;99.90
13610;DHT22;6876;50.788;4.940;2023-10-09T00:32:31;15.20;99.90
13610;DHT22;6876;50.788;4.940;2023-10-09T00:35:20;15.30;99.90
13610;DHT22;6876;50.788;4.940;2023-10-09T00:38:32;15.40;99.90
13610;DHT22;6876;50.788;4.940;2023-10-09T00:41:22;15.40;99.90
13610;DHT22;6876;50.788;4.940;2023-10-09T00:44:15;15.50;99.90
13610;DHT22;6876;50.788;4.940;2023-10-09T00:47:02;15.60;99.90
13610;DHT22;6876;50.788;4.940;2023-10-09T00:49:58;15.60;99.90
13610;DHT22;6876;50.788;4.940;2023-10-09T00:52:50;15.70;99.90
13610;DHT22;6876;50.788;4.940;2023-10-09T00:55:40;15.80;99.90
13610;DHT22;6876;50.788;4.940;2023-10-09T00:58:33;15.80;99.90
13610;DHT22;6876;50.788;4.940;2023-10-09T01:01:22;15.80;99.90
13610;DHT22;6876;50.788;4.940;2023-10-09T01:04:14;15.90;99.90
13610;DHT22;6876;50.788;4.940;2023-10-09T01:07:04;15.90;99.90
13610;DHT22;6876;50.788;4.940;2023-10-09T01:09:55;15.90;99.90
13610;DHT22;6876;50.788;4.940;2023-10-09T01:12:43;15.90;99.90
13610;DHT22;6876;50.788;4.940;2023-10-09T01:15:36;15.80;99.90
13610;DHT22;6876;50.788;4.940;2023-10-09T01:18:30;15.80;99.90
13610;DHT22;6876;50.788;4.940;2023-10-09T01:21:22;15.80;99.90
13610;DHT22;6876;50.788;4.940;2023-10-09T01:24:12;15.80;99.90
13610;DHT22;6876;50.788;4.940;2023-10-09T01:27:02;15.80;99.90
13610;DHT22;6876;50.788;4.940;2023-10-09T01:29:51;15.80;99.90
13610;DHT22;6876;50.788;4.940;2023-10-09T01:32:39;15.80;99.90
13610;DHT22;6876;50.788;4.940;2023-10-09T01:35:26;15.80;99.90
13610;DHT22;6876;50.788;4.940;2023-10-09T01:38:18;15.80;99.90
13610;DHT22;6876;50.788;4.940;2023-10-09T01:41:17;15.80;99.90
13610;DHT22;6876;50.788;4.940;2023-10-09T01:44:06;15.80;99.90
13610;DHT22;6876;50.788;4.940;2023-10-09T01:46:58;15.80;99.90
13610;DHT22;6876;50.788;4.940;2023-10-09T01:49:46;15.80;99.90
13610;DHT22;6876;50.788;4.940;2023-10-09T01:52:35;15.80;99.90
13610;DHT22;6876;50.788;4.940;2023-10-09T01:55:24;15.80;99.90
13610;DHT22;6876;50.788;4.940;2023-10-09T01:58:20;15.80;99.90
13610;DHT22;6876;50.788;4.940;2023-10-09T02:01:14;15.80;99.90
13610;DHT22;6876;50.788;4.940;2023-10-09T02:04:02;15.80;99.90
13610;DHT22;6876;50.788;4.940;2023-10-09T02:06:59;15.90;99.90
13610;DHT22;6876;50.788;4.940;2023-10-09T02:09:53;15.90;99.90
13610;DHT22;6876;50.788;4.940;2023-10-09T02:12:41;16.00;99.90
13610;DHT22;6876;50.788;4.940;2023-10-09T02:15:30;16.10;99.90
13610;DHT22;6876;50.788;4.940;2023-10-09T02:18:37;16.10;99.90
13610;DHT22;6876;50.788;4.940;2023-10-09T02:21:39;16.10;99.90
13610;DHT22;6876;50.788;4.940;2023-10-09T02:24:27;16.10;99.90
13610;DHT22;6876;50.788;4.940;2023-10-09T02:27:27;16.10;99.90
13610;DHT22;6876;50.788;4.940;2023-10-09T02:30:33;16.10;99.90
13610;DHT22;6876;50.788;4.940;2023-10-09T02:33:20;16.10;99.90
13610;DHT22;6876;50.788;4.940;2023-10-09T02:36:13;16.10;99.90
13610;DHT22;6876;50.788;4.940;2023-10-09T02:39:01;16.10;99.90
13610;DHT22;6876;50.788;4.940;2023-10-09T02:41:52;16.10;99.90
13610;DHT22;6876;50.788;4.940;2023-10-09T02:44:46;16.10;99.90
13610;DHT22;6876;50.788;4.940;2023-10-09T02:47:37;16.10;99.90
13610;DHT22;6876;50.788;4.940;2023-10-09T02:50:25;16.10;99.90
13610;DHT22;6876;50.788;4.940;2023-10-09T02:53:14;16.10;99.90
13610;DHT22;6876;50.788;4.940;2023-10-09T02:56:06;16.00;99.90
13610;DHT22;6876;50.788;4.940;2023-10-09T02:58:58;16.00;99.90
13610;DHT22;6876;50.788;4.940;2023-10-09T03:01:52;16.00;99.90
13610;DHT22;6876;50.788;4.940;2023-10-09T03:04:41;16.00;99.90
13610;DHT22;6876;50.788;4.940;2023-10-09T03:07:28;16.00;99.90
13610;DHT22;6876;50.788;4.940;2023-10-09T03:10:16;15.90;99.90
13610;DHT22;6876;50.788;4.940;2023-10-09T03:13:03;15.90;99.90
13610;DHT22;6876;50.788;4.940;2023-10-09T03:15:51;15.90;99.90
13610;DHT22;6876;50.788;4.940;2023-10-09T03:18:39;15.90;99.90
13610;DHT22;6876;50.788;4.940;2023-10-09T03:21:28;15.90;99.90
13610;DHT22;6876;50.788;4.940;2023-10-09T03:24:16;15.80;99.90
13610;DHT22;6876;50.788;4.940;2023-10-09T03:27:04;15.80;99.90
13610;DHT22;6876;50.788;4.940;2023-10-09T03:29:51;15.80;99.90
13610;DHT22;6876;50.788;4.940;2023-10-09T03:32:40;15.80;99.90
13610;DHT22;6876;50.788;4.940;2023-10-09T03:35:27;15.80;99.90
13610;DHT22;6876;50.788;4.940;2023-10-09T03:38:18;15.80;99.90
13610;DHT22;6876;50.788;4.940;2023-10-09T03:41:06;15.80;99.90
13610;DHT22;6876;50.788;4.940;2023-10-09T03:43:58;15.90;99.90
13610;DHT22;6876;50.788;4.940;2023-10-09T03:46:46;15.90;99.90
13610;DHT22;6876;50.788;4.940;2023-10-09T03:49:37;15.90;99.90
13610;DHT22;6876;50.788;4.940;2023-10-09T03:52:25;15.90;99.90
13610;DHT22;6876;50.788;4.940;2023-10-09T03:55:18;15.90;99.90
13610;DHT22;6876;50.788;4.940;2023-10-09T03:58:08;15.80;99.90
13610;DHT22;6876;50.788;4.940;2023-10-09T04:00:57;15.80;99.90
13610;DHT22;6876;50.788;4.940;2023-10-09T04:03:45;15.70;99.90
13610;DHT22;6876;50.788;4.940;2023-10-09T04:06:33;15.70;99.90
13610;DHT22;6876;50.788;4.940;2023-10-09T04:09:21;15.70;99.90
13610;DHT22;6876;50.788;4.940;2023-10-09T04:12:26;15.70;99.90
13610;DHT22;6876;50.788;4.940;2023-10-09T04:15:17;15.60;99.90
13610;DHT22;6876;50.788;4.940;2023-10-09T04:18:09;15.60;99.90
13610;DHT22;6876;50.788;4.940;2023-10-09T04:21:01;15.50;99.90
13610;DHT22;6876;50.788;4.940;2023-10-09T04:24:07;15.50;99.90
13610;DHT22;6876;50.788;4.940;2023-10-09T04:27:09;15.40;99.90
13610;DHT22;6876;50.788;4.940;2023-10-09T04:30:00;15.40;99.90
13610;DHT22;6876;50.788;4.940;2023-10-09T04:32:53;15.40;99.90
13610;DHT22;6876;50.788;4.940;2023-10-09T04:35:45;15.30;99.90
13610;DHT22;6876;50.788;4.940;2023-10-09T04:38:53;15.30;99.90
13610;DHT22;6876;50.788;4.940;2023-10-09T04:42:01;15.30;99.90
13610;DHT22;6876;50.788;4.940;2023-10-09T04:45:13;15.30;99.90
13610;DHT22;6876;50.788;4.940;2023-10-09T04:48:26;15.30;99.90
13610;DHT22;6876;50.788;4.940;2023-10-09T04:51:23;15.40;99.90
13610;DHT22;6876;50.788;4.940;2023-10-09T04:54:20;15.40;99.90
13610;DHT22;6876;50.788;4.940;2023-10-09T04:57:25;15.40;99.90
13610;DHT22;6876;50.788;4.940;2023-10-09T05:00:15;15.40;99.90
13610;DHT22;6876;50.788;4.940;2023-10-09T05:03:29;15.40;99.90
13610;DHT22;6876;50.788;4.940;2023-10-09T05:06:29;15.40;99.90
13610;DHT22;6876;50.788;4.940;2023-10-09T05:09:41;15.40;99.90
13610;DHT22;6876;50.788;4.940;2023-10-09T05:12:41;15.40;99.90
13610;DHT22;6876;50.788;4.940;2023-10-09T05:15:35;15.40;99.90
13610;DHT22;6876;50.788;4.940;2023-10-09T05:18:22;15.40;99.90
13610;DHT22;6876;50.788;4.940;2023-10-09T05:21:13;15.50;99.90
13610;DHT22;6876;50.788;4.940;2023-10-09T05:24:14;15.50;99.90
13610;DHT22;6876;50.788;4.940;2023-10-09T05:27:05;15.50;99.90
13610;DHT22;6876;50.788;4.940;2023-10-09T05:30:04;15.50;99.90
13610;DHT22;6876;50.788;4.940;2023-10-09T05:33:12;15.50;99.90
13610;DHT22;6876;50.788;4.940;2023-10-09T05:36:15;15.40;99.90
13610;DHT22;6876;50.788;4.940;2023-10-09T05:39:17;15.40;99.90
13610;DHT22;6876;50.788;4.940;2023-10-09T05:42:27;15.40;99.90
13610;DHT22;6876;50.788;4.940;2023-10-09T05:45:29;15.40;99.90
13610;DHT22;6876;50.788;4.940;2023-10-09T05:48:37;15.40;99.90
13610;DHT22;6876;50.788;4.940;2023-10-09T05:51:40;15.50;99.90
13610;DHT22;6876;50.788;4.940;2023-10-09T05:54:29;15.50;99.90
13610;DHT22;6876;50.788;4.940;2023-10-09T05:57:30;15.50;99.90
13610;DHT22;6876;50.788;4.940;2023-10-09T06:00:40;15.50;99.90
13610;DHT22;6876;50.788;4.940;2023-10-09T06:03:46;15.40;99.90
13610;DHT22;6876;50.788;4.940;2023-10-09T06:06:39;15.40;99.90
13610;DHT22;6876;50.788;4.940;2023-10-09T06:09:30;15.40;99.90
13610;DHT22;6876;50.788;4.940;2023-10-09T06:12:38;15.40;99.90
13610;DHT22;6876;50.788;4.940;2023-10-09T06:15:42;15.40;99.90
13610;DHT22;6876;50.788;4.940;2023-10-09T06:18:56;15.50;99.90
13610;DHT22;6876;50.788;4.940;2023-10-09T06:21:54;15.60;99.90
13610;DHT22;6876;50.788;4.940;2023-10-09T06:24:59;15.60;99.90
13610;DHT22;6876;50.788;4.940;2023-10-09T06:27:54;15.70;99.90
13610;DHT22;6876;50.788;4.940;2023-10-09T06:30:44;15.70;99.90
13610;DHT22;6876;50.788;4.940;2023-10-09T06:33:33;15.60;91.40
13610;DHT22;6876;50.788;4.940;2023-10-09T06:36:41;15.70;99.90
13610;DHT22;6876;50.788;4.940;2023-10-09T06:39:38;15.70;99.90
13610;DHT22;6876;50.788;4.940;2023-10-09T06:42:57;15.70;99.90
13610;DHT22;6876;50.788;4.940;2023-10-09T06:45:44;15.70;90.80
13610;DHT22;6876;50.788;4.940;2023-10-09T06:48:32;15.70;96.70
13610;DHT22;6876;50.788;4.940;2023-10-09T06:51:30;15.70;81.00
13610;DHT22;6876;50.788;4.940;2023-10-09T06:54:31;15.80;47.00
13610;DHT22;6876;50.788;4.940;2023-10-09T06:57:23;15.80;50.00
13610;DHT22;6876;50.788;4.940;2023-10-09T07:00:28;15.80;19.80
13610;DHT22;6876;50.788;4.940;2023-10-09T07:03:38;15.80;17.00
13610;DHT22;6876;50.788;4.940;2023-10-09T07:06:38;15.90;18.50
13610;DHT22;6876;50.788;4.940;2023-10-09T07:09:40;15.90;18.80
13610;DHT22;6876;50.788;4.940;2023-10-09T07:12:28;15.90;18.60
13610;DHT22;6876;50.788;4.940;2023-10-09T07:15:18;16.00;18.70
13610;DHT22;6876;50.788;4.940;2023-10-09T07:18:22;16.10;1.00
13610;DHT22;6876;50.788;4.940;2023-10-09T07:21:27;16.10;1.00
13610;DHT22;6876;50.788;4.940;2023-10-09T07:24:15;16.30;1.00
13610;DHT22;6876;50.788;4.940;2023-10-09T07:27:04;16.40;1.00
13610;DHT22;6876;50.788;4.940;2023-10-09T07:29:55;16.50;1.00
13610;DHT22;6876;50.788;4.940;2023-10-09T07:32:42;16.60;1.00
13610;DHT22;6876;50.788;4.940;2023-10-09T07:35:34;16.70;1.00
13610;DHT22;6876;50.788;4.940;2023-10-09T07:38:34;16.80;1.00
13610;DHT22;6876;50.788;4.940;2023-10-09T07:41:22;16.90;1.00
13610;DHT22;6876;50.788;4.940;2023-10-09T07:44:26;17.00;1.00
13610;DHT22;6876;50.788;4.940;2023-10-09T07:47:28;17.10;1.00
13610;DHT22;6876;50.788;4.940;2023-10-09T07:50:46;17.20;1.00
13610;DHT22;6876;50.788;4.940;2023-10-09T07:53:35;17.50;1.00
13610;DHT22;6876;50.788;4.940;2023-10-09T07:56:29;17.80;99.90
13610;DHT22;6876;50.788;4.940;2023-10-09T07:59:25;18.10;99.90
13610;DHT22;6876;50.788;4.940;2023-10-09T08:02:17;18.40;99.90
13610;DHT22;6876;50.788;4.940;2023-10-09T08:05:06;18.90;3.30
13610;DHT22;6876;50.788;4.940;2023-10-09T08:08:04;19.10;1.00
13610;DHT22;6876;50.788;4.940;2023-10-09T08:11:25;19.60;1.00
13610;DHT22;6876;50.788;4.940;2023-10-09T08:14:43;20.70;1.00
13610;DHT22;6876;50.788;4.940;2023-10-09T08:17:31;21.20;1.00
13610;DHT22;6876;50.788;4.940;2023-10-09T08:20:23;21.90;1.00
13610;DHT22;6876;50.788;4.940;2023-10-09T08:23:12;21.80;99.90
13610;DHT22;6876;50.788;4.940;2023-10-09T08:26:09;21.00;1.00
13610;DHT22;6876;50.788;4.940;2023-10-09T08:28:59;20.30;1.00
13610;DHT22;6876;50.788;4.940;2023-10-09T08:32:08;19.80;1.00
13610;DHT22;6876;50.788;4.940;2023-10-09T08:35:05;19.50;99.90
13610;DHT22;6876;50.788;4.940;2023-10-09T08:38:05;19.40;99.90
13610;DHT22;6876;50.788;4.940;2023-10-09T08:40:55;19.30;1.00
13610;DHT22;6876;50.788;4.940;2023-10-09T08:43:49;19.20;1.00
13610;DHT22;6876;50.788;4.940;2023-10-09T08:46:38;19.10;1.00
13610;DHT22;6876;50.788;4.940;2023-10-09T08:49:27;19.10;1.00
13610;DHT22;6876;50.788;4.940;2023-10-09T08:52:16;19.50;1.00
13610;DHT22;6876;50.788;4.940;2023-10-09T08:55:03;20.40;1.00
13610;DHT22;6876;50.788;4.940;2023-10-09T08:57:51;20.20;99.90
13610;DHT22;6876;50.788;4.940;2023-10-09T09:00:40;20.00;1.00
13610;DHT22;6876;50.788;4.940;2023-10-09T09:03:38;19.90;1.00
13610;DHT22;6876;50.788;4.940;2023-10-09T09:06:36;20.10;1.00
13610;DHT22;6876;50.788;4.940;2023-10-09T09:09:24;20.30;99.90
13610;DHT22;6876;50.788;4.940;2023-10-09T09:12:14;20.30;1.00
13610;DHT22;6876;50.788;4.940;2023-10-09T09:15:02;20.20;1.00
13610;DHT22;6876;50.788;4.940;2023-10-09T09:17:50;20.60;1.00
13610;DHT22;6876;50.788;4.940;2023-10-09T09:20:39;20.90;1.00
13610;DHT22;6876;50.788;4.940;2023-10-09T09:23:28;21.60;99.90
13610;DHT22;6876;50.788;4.940;2023-10-09T09:26:18;22.70;99.90
13610;DHT22;6876;50.788;4.940;2023-10-09T09:29:20;24.00;1.00
13610;DHT22;6876;50.788;4.940;2023-10-09T09:32:11;24.80;99.90
13610;DHT22;6876;50.788;4.940;2023-10-09T09:35:12;24.30;1.00
13610;DHT22;6876;50.788;4.940;2023-10-09T09:38:05;24.30;1.00
13610;DHT22;6876;50.788;4.940;2023-10-09T09:40:56;23.80;1.00
13610;DHT22;6876;50.788;4.940;2023-10-09T09:43:49;23.60;99.90
13610;DHT22;6876;50.788;4.940;2023-10-09T09:46:39;23.90;99.90
13610;DHT22;6876;50.788;4.940;2023-10-09T09:49:28;23.50;99.90
13610;DHT22;6876;50.788;4.940;2023-10-09T09:52:18;23.20;99.90
13610;DHT22;6876;50.788;4.940;2023-10-09T09:55:11;23.00;99.90
13610;DHT22;6876;50.788;4.940;2023-10-09T09:58:13;24.50;1.00
13610;DHT22;6876;50.788;4.940;2023-10-09T10:01:06;25.90;99.90
13610;DHT22;6876;50.788;4.940;2023-10-09T10:04:05;26.20;99.90
13610;DHT22;6876;50.788;4.940;2023-10-09T10:06:58;25.80;99.90
13610;DHT22;6876;50.788;4.940;2023-10-09T10:09:50;25.60;99.90
13610;DHT22;6876;50.788;4.940;2023-10-09T10:12:50;24.50;99.90
13610;DHT22;6876;50.788;4.940;2023-10-09T10:16:00;23.70;99.90
13610;DHT22;6876;50.788;4.940;2023-10-09T10:18:58;23.20;99.90
13610;DHT22;6876;50.788;4.940;2023-10-09T10:22:25;23.10;1.00
13610;DHT22;6876;50.788;4.940;2023-10-09T10:25:32;22.80;99.90
13610;DHT22;6876;50.788;4.940;2023-10-09T10:28:22;22.30;1.00
13610;DHT22;6876;50.788;4.940;2023-10-09T10:31:52;22.20;99.90
13610;DHT22;6876;50.788;4.940;2023-10-09T10:34:53;22.00;1.00
13610;DHT22;6876;50.788;4.940;2023-10-09T10:37:43;21.90;1.00
13610;DHT22;6876;50.788;4.940;2023-10-09T10:40:36;21.70;1.00
13610;DHT22;6876;50.788;4.940;2023-10-09T10:43:27;21.70;1.00
13610;DHT22;6876;50.788;4.940;2023-10-09T10:46:34;21.70;1.00
13610;DHT22;6876;50.788;4.940;2023-10-09T10:49:30;21.90;1.00
13610;DHT22;6876;50.788;4.940;2023-10-09T10:52:25;22.00;1.00
13610;DHT22;6876;50.788;4.940;2023-10-09T10:55:27;21.90;1.00
13610;DHT22;6876;50.788;4.940;2023-10-09T10:58:32;22.00;99.90
13610;DHT22;6876;50.788;4.940;2023-10-09T11:01:35;22.00;1.00
13610;DHT22;6876;50.788;4.940;2023-10-09T11:04:39;22.00;99.90
13610;DHT22;6876;50.788;4.940;2023-10-09T11:07:28;21.90;99.90
13610;DHT22;6876;50.788;4.940;2023-10-09T11:10:22;22.10;99.90
13610;DHT22;6876;50.788;4.940;2023-10-09T11:13:20;22.20;99.90
13610;DHT22;6876;50.788;4.940;2023-10-09T11:16:19;22.20;1.00
13610;DHT22;6876;50.788;4.940;2023-10-09T11:19:22;22.20;99.90
13610;DHT22;6876;50.788;4.940;2023-10-09T11:22:18;22.30;1.00
13610;DHT22;6876;50.788;4.940;2023-10-09T11:25:14;22.20;75.90
13610;DHT22;6876;50.788;4.940;2023-10-09T11:28:16;22.10;99.90
13610;DHT22;6876;50.788;4.940;2023-10-09T11:31:14;22.10;99.90
13610;DHT22;6876;50.788;4.940;2023-10-09T11:34:02;22.00;1.00
13610;DHT22;6876;50.788;4.940;2023-10-09T11:36:52;22.00;1.00
13610;DHT22;6876;50.788;4.940;2023-10-09T11:39:42;22.20;1.00
13610;DHT22;6876;50.788;4.940;2023-10-09T11:42:37;22.40;1.00
13610;DHT22;6876;50.788;4.940;2023-10-09T11:45:34;22.50;99.90
13610;DHT22;6876;50.788;4.940;2023-10-09T11:48:24;22.30;63.50
13610;DHT22;6876;50.788;4.940;2023-10-09T11:51:20;22.20;99.90
13610;DHT22;6876;50.788;4.940;2023-10-09T11:54:08;22.30;1.00
13610;DHT22;6876;50.788;4.940;2023-10-09T11:56:58;22.50;99.90
13610;DHT22;6876;50.788;4.940;2023-10-09T11:59:47;22.30;99.90
13610;DHT22;6876;50.788;4.940;2023-10-09T12:02:38;22.40;99.90
13610;DHT22;6876;50.788;4.940;2023-10-09T12:05:30;22.40;99.90
13610;DHT22;6876;50.788;4.940;2023-10-09T12:08:17;22.40;99.90
13610;DHT22;6876;50.788;4.940;2023-10-09T12:11:09;22.10;99.90
13610;DHT22;6876;50.788;4.940;2023-10-09T12:13:57;22.10;99.90
13610;DHT22;6876;50.788;4.940;2023-10-09T12:16:46;22.20;99.90
13610;DHT22;6876;50.788;4.940;2023-10-09T12:19:37;22.30;8.50
13610;DHT22;6876;50.788;4.940;2023-10-09T12:22:25;22.20;67.70
13610;DHT22;6876;50.788;4.940;2023-10-09T12:25:13;22.40;99.90
13610;DHT22;6876;50.788;4.940;2023-10-09T12:28:03;22.30;99.90
13610;DHT22;6876;50.788;4.940;2023-10-09T12:30:50;22.50;93.00
13610;DHT22;6876;50.788;4.940;2023-10-09T12:33:38;22.70;1.00
13610;DHT22;6876;50.788;4.940;2023-10-09T12:36:25;22.70;1.00
13610;DHT22;6876;50.788;4.940;2023-10-09T12:39:13;22.70;1.00
13610;DHT22;6876;50.788;4.940;2023-10-09T12:42:04;22.70;1.00
13610;DHT22;6876;50.788;4.940;2023-10-09T12:44:55;22.60;99.90
13610;DHT22;6876;50.788;4.940;2023-10-09T12:47:43;22.50;93.90
13610;DHT22;6876;50.788;4.940;2023-10-09T12:50:33;22.50;1.00
13610;DHT22;6876;50.788;4.940;2023-10-09T12:53:27;22.40;99.90
13610;DHT22;6876;50.788;4.940;2023-10-09T12:56:15;22.30;99.90
13610;DHT22;6876;50.788;4.940;2023-10-09T12:59:05;22.20;1.00
13610;DHT22;6876;50.788;4.940;2023-10-09T13:01:54;22.30;99.90
13610;DHT22;6876;50.788;4.940;2023-10-09T13:04:44;22.10;1.00
13610;DHT22;6876;50.788;4.940;2023-10-09T13:07:31;22.20;1.00
13610;DHT22;6876;50.788;4.940;2023-10-09T13:10:19;22.30;1.00
13610;DHT22;6876;50.788;4.940;2023-10-09T13:13:09;22.20;1.00
13610;DHT22;6876;50.788;4.940;2023-10-09T13:15:57;22.20;1.00
13610;DHT22;6876;50.788;4.940;2023-10-09T13:18:46;22.30;1.00
13610;DHT22;6876;50.788;4.940;2023-10-09T13:21:37;22.20;1.00
13610;DHT22;6876;50.788;4.940;2023-10-09T13:24:26;22.10;1.00
13610;DHT22;6876;50.788;4.940;2023-10-09T13:27:15;22.10;99.90
13610;DHT22;6876;50.788;4.940;2023-10-09T13:30:08;22.20;99.90
13610;DHT22;6876;50.788;4.940;2023-10-09T13:33:07;22.10;1.00
13610;DHT22;6876;50.788;4.940;2023-10-09T13:36:04;22.20;1.00
13610;DHT22;6876;50.788;4.940;2023-10-09T13:39:03;22.40;1.00
13610;DHT22;6876;50.788;4.940;2023-10-09T13:42:05;22.30;1.00
13610;DHT22;6876;50.788;4.940;2023-10-09T13:44:53;22.20;1.00
13610;DHT22;6876;50.788;4.940;2023-10-09T13:47:41;22.10;99.90
13610;DHT22;6876;50.788;4.940;2023-10-09T13:50:30;22.00;6.00
13610;DHT22;6876;50.788;4.940;2023-10-09T13:53:20;22.00;99.90
13610;DHT22;6876;50.788;4.940;2023-10-09T13:56:10;21.90;99.90
13610;DHT22;6876;50.788;4.940;2023-10-09T13:59:00;21.90;99.90
13610;DHT22;6876;50.788;4.940;2023-10-09T14:01:48;22.10;99.90
13610;DHT22;6876;50.788;4.940;2023-10-09T14:04:36;22.20;99.90
13610;DHT22;6876;50.788;4.940;2023-10-09T14:07:24;22.30;99.90
13610;DHT22;6876;50.788;4.940;2023-10-09T14:10:13;22.30;1.00
13610;DHT22;6876;50.788;4.940;2023-10-09T14:13:04;22.10;1.00
13610;DHT22;6876;50.788;4.940;2023-10-09T14:15:58;22.10;7.00
13610;DHT22;6876;50.788;4.940;2023-10-09T14:18:48;22.10;99.90
13610;DHT22;6876;50.788;4.940;2023-10-09T14:21:39;22.00;99.90
13610;DHT22;6876;50.788;4.940;2023-10-09T14:24:27;22.00;1.00
13610;DHT22;6876;50.788;4.940;2023-10-09T14:27:20;22.00;1.00
13610;DHT22;6876;50.788;4.940;2023-10-09T14:30:11;22.00;99.90
13610;DHT22;6876;50.788;4.940;2023-10-09T14:33:04;21.90;99.90
13610;DHT22;6876;50.788;4.940;2023-10-09T14:35:52;21.80;1.00
13610;DHT22;6876;50.788;4.940;2023-10-09T14:38:41;21.80;1.00
13610;DHT22;6876;50.788;4.940;2023-10-09T14:41:28;21.80;1.00
13610;DHT22;6876;50.788;4.940;2023-10-09T14:44:20;21.80;1.00
13610;DHT22;6876;50.788;4.940;2023-10-09T14:47:09;21.80;99.90
13610;DHT22;6876;50.788;4.940;2023-10-09T14:49:57;21.90;99.90
13610;DHT22;6876;50.788;4.940;2023-10-09T14:52:47;21.90;99.90
13610;DHT22;6876;50.788;4.940;2023-10-09T14:55:36;22.00;99.90
13610;DHT22;6876;50.788;4.940;2023-10-09T14:58:24;21.90;99.90
13610;DHT22;6876;50.788;4.940;2023-10-09T15:01:13;21.90;68.10
13610;DHT22;6876;50.788;4.940;2023-10-09T15:04:05;21.90;26.30
13610;DHT22;6876;50.788;4.940;2023-10-09T15:06:58;21.80;99.90
13610;DHT22;6876;50.788;4.940;2023-10-09T15:09:47;21.70;1.00
13610;DHT22;6876;50.788;4.940;2023-10-09T15:12:36;21.60;1.00
13610;DHT22;6876;50.788;4.940;2023-10-09T15:15:28;21.50;99.90
13610;DHT22;6876;50.788;4.940;2023-10-09T15:18:18;21.40;1.00
13610;DHT22;6876;50.788;4.940;2023-10-09T15:21:07;21.30;99.90
13610;DHT22;6876;50.788;4.940;2023-10-09T15:23:55;21.20;91.70
13610;DHT22;6876;50.788;4.940;2023-10-09T15:26:43;21.20;1.00
13610;DHT22;6876;50.788;4.940;2023-10-09T15:29:30;21.20;99.90
13610;DHT22;6876;50.788;4.940;2023-10-09T15:32:19;21.20;99.90
13610;DHT22;6876;50.788;4.940;2023-10-09T15:35:10;21.10;1.00
13610;DHT22;6876;50.788;4.940;2023-10-09T15:37:58;21.20;1.00
13610;DHT22;6876;50.788;4.940;2023-10-09T15:40:49;21.10;1.00
13610;DHT22;6876;50.788;4.940;2023-10-09T15:43:36;21.10;1.00
13610;DHT22;6876;50.788;4.940;2023-10-09T15:46:25;21.00;1.00
13610;DHT22;6876;50.788;4.940;2023-10-09T15:49:13;20.90;1.00
13610;DHT22;6876;50.788;4.940;2023-10-09T15:52:02;20.80;1.00
13610;DHT22;6876;50.788;4.940;2023-10-09T15:54:51;20.70;99.90
13610;DHT22;6876;50.788;4.940;2023-10-09T15:57:40;20.60;1.00
13610;DHT22;6876;50.788;4.940;2023-10-09T16:00:28;20.50;1.00
13610;DHT22;6876;50.788;4.940;2023-10-09T16:03:16;20.40;82.60
13610;DHT22;6876;50.788;4.940;2023-10-09T16:06:03;20.30;1.00
13610;DHT22;6876;50.788;4.940;2023-10-09T16:08:56;20.20;99.90
13610;DHT22;6876;50.788;4.940;2023-10-09T16:11:43;20.20;1.00
13610;DHT22;6876;50.788;4.940;2023-10-09T16:14:31;20.10;1.00
13610;DHT22;6876;50.788;4.940;2023-10-09T16:17:20;20.00;1.00
13610;DHT22;6876;50.788;4.940;2023-10-09T16:20:10;19.90;1.00
13610;DHT22;6876;50.788;4.940;2023-10-09T16:23:07;19.80;1.00
13610;DHT22;6876;50.788;4.940;2023-10-09T16:25:57;19.80;1.00
13610;DHT22;6876;50.788;4.940;2023-10-09T16:28:46;19.70;1.00
13610;DHT22;6876;50.788;4.940;2023-10-09T16:31:34;19.60;99.90
13610;DHT22;6876;50.788;4.940;2023-10-09T16:34:22;19.60;1.00
13610;DHT22;6876;50.788;4.940;2023-10-09T16:37:12;19.50;1.00
13610;DHT22;6876;50.788;4.940;2023-10-09T16:40:00;19.50;1.00
13610;DHT22;6876;50.788;4.940;2023-10-09T16:42:53;19.40;1.00
13610;DHT22;6876;50.788;4.940;2023-10-09T16:45:41;19.40;1.00
13610;DHT22;6876;50.788;4.940;2023-10-09T16:48:29;19.20;1.00
13610;DHT22;6876;50.788;4.940;2023-10-09T16:51:17;19.20;1.00
13610;DHT22;6876;50.788;4.940;2023-10-09T16:54:07;19.20;99.90
13610;DHT22;6876;50.788;4.940;2023-10-09T16:57:00;19.10;1.00
13610;DHT22;6876;50.788;4.940;2023-10-09T16:59:49;19.00;99.90
13610;DHT22;6876;50.788;4.940;2023-10-09T17:02:38;18.90;1.00
13610;DHT22;6876;50.788;4.940;2023-10-09T17:05:27;18.80;99.90
13610;DHT22;6876;50.788;4.940;2023-10-09T17:08:22;18.80;99.90
13610;DHT22;6876;50.788;4.940;2023-10-09T17:11:15;18.70;1.00
13610;DHT22;6876;50.788;4.940;2023-10-09T17:14:05;18.60;90.80
13610;DHT22;6876;50.788;4.940;2023-10-09T17:16:54;18.60;99.90
13610;DHT22;6876;50.788;4.940;2023-10-09T17:19:43;18.40;1.00
13610;DHT22;6876;50.788;4.940;2023-10-09T17:22:34;18.30;99.90
13610;DHT22;6876;50.788;4.940;2023-10-09T17:25:21;18.20;32.20
13610;DHT22;6876;50.788;4.940;2023-10-09T17:28:09;18.00;1.00
13610;DHT22;6876;50.788;4.940;2023-10-09T17:31:00;17.80;1.00
13610;DHT22;6876;50.788;4.940;2023-10-09T17:33:50;17.70;16.90
13610;DHT22;6876;50.788;4.940;2023-10-09T17:36:39;17.60;99.90
13610;DHT22;6876;50.788;4.940;2023-10-09T17:39:27;17.70;1.00
13610;DHT22;6876;50.788;4.940;2023-10-09T17:42:16;17.70;99.90
13610;DHT22;6876;50.788;4.940;2023-10-09T17:45:06;17.70;99.90
13610;DHT22;6876;50.788;4.940;2023-10-09T17:47:54;17.60;99.90
13610;DHT22;6876;50.788;4.940;2023-10-09T17:50:45;17.40;99.90
13610;DHT22;6876;50.788;4.940;2023-10-09T17:53:32;17.30;1.00
13610;DHT22;6876;50.788;4.940;2023-10-09T17:56:20;17.30;1.00
13610;DHT22;6876;50.788;4.940;2023-10-09T17:59:11;17.20;1.00
13610;DHT22;6876;50.788;4.940;2023-10-09T18:01:59;17.10;1.00
13610;DHT22;6876;50.788;4.940;2023-10-09T18:04:48;16.90;99.90
13610;DHT22;6876;50.788;4.940;2023-10-09T18:07:37;16.90;1.00
13610;DHT22;6876;50.788;4.940;2023-10-09T18:10:25;17.00;99.90
13610;DHT22;6876;50.788;4.940;2023-10-09T18:13:13;17.10;1.00
13610;DHT22;6876;50.788;4.940;2023-10-09T18:16:03;17.10;1.00
13610;DHT22;6876;50.788;4.940;2023-10-09T18:18:57;17.10;90.10
13610;DHT22;6876;50.788;4.940;2023-10-09T18:21:47;17.00;1.00
13610;DHT22;6876;50.788;4.940;2023-10-09T18:24:38;17.00;1.00
13610;DHT22;6876;50.788;4.940;2023-10-09T18:27:26;16.90;99.90
13610;DHT22;6876;50.788;4.940;2023-10-09T18:30:15;16.80;1.00
13610;DHT22;6876;50.788;4.940;2023-10-09T18:33:02;16.80;1.00
13610;DHT22;6876;50.788;4.940;2023-10-09T18:35:50;16.80;1.00
13610;DHT22;6876;50.788;4.940;2023-10-09T18:38:38;16.60;1.00